Time;durP1;ratioP1;P1;durP2;ratioP2;P2;SDS_P1;SDS_P2;PMS_P1;PMS_P2;Temp;Humidity;BMP_temperature;BMP_pressure;BME280_temperature;BME280_humidity;BME280_pressure;Samples;Min_cycle;Max_cycle;Signal;HPM_P1;HPM_P2
2022/07/30 00:01:29;;;;;;;8.07;2.53;;;23.70;46.00;;;;;;4974216;28;20162;-73
2022/07/30 00:03:55;;;;;;;9.82;2.40;;;23.70;46.20;;;;;;4974206;28;20039;-73
2022/07/30 00:06:21;;;;;;;4.70;2.38;;;23.70;46.00;;;;;;4974062;28;20479;-72
2022/07/30 00:08:47;;;;;;;7.60;2.50;;;23.70;46.60;;;;;;4973940;28;20174;-73
2022/07/30 00:11:14;;;;;;;9.50;2.63;;;23.70;46.10;;;;;;4974360;28;20037;-72
2022/07/30 00:13:39;;;;;;;5.30;2.33;;;23.70;45.90;;;;;;5005509;28;20042;-72
2022/07/30 00:16:06;;;;;;;6.20;2.40;;;23.70;46.10;;;;;;4986912;28;20034;-72
2022/07/30 00:18:32;;;;;;;6.45;2.55;;;23.70;46.10;;;;;;4993343;28;20149;-73
2022/07/30 00:20:58;;;;;;;8.25;2.72;;;23.70;46.00;;;;;;4993600;28;20117;-73
2022/07/30 00:23:23;;;;;;;4.50;2.30;;;23.70;46.60;;;;;;4993345;28;20030;-73
2022/07/30 00:25:49;;;;;;;6.68;2.20;;;23.70;46.30;;;;;;4993247;28;20372;-73
2022/07/30 00:28:15;;;;;;;10.02;2.53;;;23.70;46.10;;;;;;4978472;28;20038;-72
2022/07/30 00:30:41;;;;;;;5.40;2.40;;;23.70;46.20;;;;;;5000871;28;20105;-72
2022/07/30 00:33:07;;;;;;;6.75;2.30;;;23.70;46.20;;;;;;5005040;28;20026;-73
2022/07/30 00:35:32;;;;;;;4.85;2.00;;;23.70;46.20;;;;;;5006076;28;20040;-73
2022/07/30 00:37:58;;;;;;;5.45;1.98;;;23.70;46.20;;;;;;4983500;28;20027;-73
2022/07/30 00:40:24;;;;;;;8.73;2.00;;;23.70;46.10;;;;;;5013474;28;20030;-73
2022/07/30 00:42:50;;;;;;;8.07;2.05;;;23.70;46.00;;;;;;5007721;28;20037;-70
2022/07/30 00:45:17;;;;;;;7.50;2.00;;;23.70;46.20;;;;;;4967493;28;20034;-71
2022/07/30 00:47:43;;;;;;;6.75;1.90;;;23.70;46.30;;;;;;4980259;28;20447;-71
2022/07/30 00:50:11;;;;;;;7.18;2.40;;;23.70;46.20;;;;;;4998290;28;20035;-71
2022/07/30 00:52:38;;;;;;;9.32;4.72;;;23.80;46.60;;;;;;4975545;28;20034;-71
2022/07/30 00:55:07;;;;;;;26.38;14.43;;;23.70;46.50;;;;;;4988303;28;20034;-72
2022/07/30 00:57:32;;;;;;;15.60;7.75;;;23.70;46.90;;;;;;4989519;28;20529;-71
2022/07/30 00:59:58;;;;;;;21.10;8.32;;;23.70;46.30;;;;;;5015776;28;20035;-72
2022/07/30 01:02:24;;;;;;;17.33;7.25;;;23.60;46.40;;;;;;4977365;28;20034;-72
2022/07/30 01:04:50;;;;;;;13.45;6.10;;;23.60;46.60;;;;;;4989447;28;20027;-71
2022/07/30 01:07:16;;;;;;;16.50;6.38;;;23.60;47.00;;;;;;5000891;28;20042;-71
2022/07/30 01:09:41;;;;;;;12.80;5.97;;;23.60;46.80;;;;;;5005563;28;20027;-72
2022/07/30 01:12:09;;;;;;;13.77;5.05;;;23.70;46.40;;;;;;4988477;28;20373;-72
2022/07/30 01:14:36;;;;;;;11.98;4.47;;;23.60;46.90;;;;;;4967937;28;20033;-72
2022/07/30 01:17:03;;;;;;;10.52;4.55;;;23.60;47.10;;;;;;4989082;28;20487;-72
2022/07/30 01:19:52;;;;;;;11.45;3.90;;;23.60;47.10;;;;;;4987394;28;20022;-72
2022/07/30 01:22:25;;;;;;;9.75;3.72;;;23.60;47.10;;;;;;4978440;28;20479;-72
2022/07/30 01:25:04;;;;;;;7.38;3.08;;;23.60;47.20;;;;;;4990877;28;20038;-72
2022/07/30 01:27:46;;;;;;;10.50;4.50;;;23.60;46.50;;;;;;5018223;28;20093;-71
2022/07/30 01:30:16;;;;;;;7.82;2.55;;;23.60;47.30;;;;;;4980534;28;20064;-71
2022/07/30 01:32:44;;;;;;;5.88;2.22;;;23.60;46.50;;;;;;4962317;28;20042;-72
2022/07/30 01:35:11;;;;;;;9.02;3.20;;;23.60;47.20;;;;;;5007673;28;20081;-71
2022/07/30 01:37:38;;;;;;;11.70;2.97;;;23.60;46.90;;;;;;5012808;28;20026;-71
2022/07/30 01:40:05;;;;;;;5.35;2.42;;;23.60;46.90;;;;;;4972631;28;20638;-71
2022/07/30 01:42:33;;;;;;;6.07;2.70;;;23.60;46.70;;;;;;4974305;28;20022;-71
2022/07/30 01:45:00;;;;;;;5.43;2.53;;;23.60;47.00;;;;;;4989664;28;20427;-71
2022/07/30 01:47:28;;;;;;;6.20;2.35;;;23.60;46.70;;;;;;5018539;28;20058;-72
2022/07/30 01:49:56;;;;;;;7.35;2.75;;;23.60;46.70;;;;;;4980533;28;20096;-72
2022/07/30 01:52:22;;;;;;;10.93;2.58;;;23.60;47.30;;;;;;4972671;28;20031;-72
2022/07/30 01:54:51;;;;;;;11.15;2.80;;;23.60;46.90;;;;;;4985622;28;20042;-71
2022/07/30 01:57:19;;;;;;;6.38;2.47;;;23.50;47.30;;;;;;5022364;28;20027;-72
2022/07/30 01:59:50;;;;;;;7.57;2.38;;;23.50;47.40;;;;;;4956526;28;20129;-72
2022/07/30 02:02:18;;;;;;;4.45;2.33;;;23.50;47.50;;;;;;4974358;28;20027;-71
2022/07/30 02:04:44;;;;;;;6.10;2.50;;;23.50;47.00;;;;;;5021845;28;20062;-71
2022/07/30 02:07:27;;;;;;;5.28;2.08;;;23.50;46.80;;;;;;5017806;28;20033;-72
2022/07/30 02:10:00;;;;;;;6.75;2.00;;;23.50;47.30;;;;;;4990237;28;20089;-72
2022/07/30 02:12:29;;;;;;;5.45;1.92;;;23.50;47.00;;;;;;4989383;28;20023;-73
2022/07/30 02:15:33;;;;;;;6.93;2.80;;;23.50;46.80;;;;;;4989276;28;20545;-72
2022/07/30 02:18:26;;;;;;;4.95;2.25;;;23.50;47.50;;;;;;5003887;28;20038;-72
2022/07/30 02:20:59;;;;;;;5.78;2.30;;;23.50;47.60;;;;;;4972950;28;20030;-72
2022/07/30 02:23:28;;;;;;;6.85;2.15;;;23.50;47.30;;;;;;4987448;28;20022;-72
2022/07/30 02:25:58;;;;;;;4.10;2.17;;;23.50;47.80;;;;;;4988036;28;20041;-72
2022/07/30 02:28:26;;;;;;;7.47;2.42;;;23.50;47.30;;;;;;4987379;28;20467;-72
2022/07/30 02:30:57;;;;;;;6.07;1.85;;;23.40;47.10;;;;;;4973144;28;20027;-72
2022/07/30 02:33:28;;;;;;;5.40;1.95;;;23.50;47.90;;;;;;4986337;28;20510;-71
2022/07/30 02:35:55;;;;;;;7.97;2.17;;;23.50;47.70;;;;;;4992251;28;20042;-72
2022/07/30 02:38:24;;;;;;;8.27;1.90;;;23.40;47.80;;;;;;5023889;28;20022;-71
2022/07/30 02:40:53;;;;;;;4.32;2.28;;;23.50;47.80;;;;;;4984342;28;20034;-72
2022/07/30 02:43:20;;;;;;;8.10;1.92;;;23.50;47.90;;;;;;4943857;28;20553;-71
2022/07/30 02:45:47;;;;;;;5.53;2.05;;;23.40;47.50;;;;;;4976302;28;20027;-72
2022/07/30 02:48:15;;;;;;;5.90;2.17;;;23.40;47.30;;;;;;4969687;28;20092;-71
2022/07/30 02:50:42;;;;;;;6.47;2.13;;;23.40;47.40;;;;;;4975464;28;20102;-72
2022/07/30 02:53:11;;;;;;;7.32;1.85;;;23.50;47.30;;;;;;4976709;28;20443;-71
2022/07/30 02:55:41;;;;;;;9.00;1.88;;;23.40;47.20;;;;;;4975448;28;20085;-71
2022/07/30 02:58:09;;;;;;;4.03;1.85;;;23.40;47.40;;;;;;4976116;28;20483;-71
2022/07/30 03:00:36;;;;;;;7.18;2.13;;;23.40;47.60;;;;;;4976377;28;20026;-71
2022/07/30 03:03:06;;;;;;;7.22;2.03;;;23.40;47.80;;;;;;4975270;28;20399;-71
2022/07/30 03:05:33;;;;;;;7.55;2.00;;;23.40;47.60;;;;;;4990762;28;20029;-71
2022/07/30 03:08:00;;;;;;;7.22;2.05;;;23.40;47.80;;;;;;4990142;28;20427;-72
2022/07/30 03:10:26;;;;;;;7.65;2.10;;;23.40;47.10;;;;;;5008357;28;20031;-71
2022/07/30 03:12:53;;;;;;;5.85;1.75;;;23.40;47.30;;;;;;5008722;28;20035;-71
2022/07/30 03:15:19;;;;;;;3.88;1.70;;;23.40;48.40;;;;;;5008540;28;20380;-71
2022/07/30 03:17:51;;;;;;;5.13;1.92;;;23.40;47.70;;;;;;4975096;28;20093;-71
2022/07/30 03:20:22;;;;;;;7.78;2.25;;;23.40;47.80;;;;;;4977544;28;20027;-71
2022/07/30 03:22:51;;;;;;;7.65;2.10;;;23.40;47.80;;;;;;4976049;28;20026;-71
2022/07/30 03:25:23;;;;;;;4.88;2.05;;;23.30;47.60;;;;;;4958725;28;20432;-71
2022/07/30 03:27:51;;;;;;;7.68;2.35;;;23.30;47.70;;;;;;4976141;28;20483;-71
2022/07/30 03:30:17;;;;;;;4.43;1.90;;;23.30;47.70;;;;;;4975888;28;20403;-71
2022/07/30 03:32:44;;;;;;;4.22;2.03;;;23.30;47.60;;;;;;4974719;28;20026;-72
2022/07/30 03:35:10;;;;;;;6.45;2.00;;;23.30;47.70;;;;;;4975708;28;20446;-71
2022/07/30 03:37:39;;;;;;;5.35;2.15;;;23.30;47.80;;;;;;4958618;28;20026;-71
2022/07/30 03:40:07;;;;;;;5.15;1.85;;;23.30;47.70;;;;;;5020342;28;20109;-72
2022/07/30 03:42:34;;;;;;;4.57;1.98;;;23.30;47.70;;;;;;4989658;28;20085;-72
2022/07/30 03:45:04;;;;;;;10.63;2.70;;;23.30;47.70;;;;;;4990606;28;20045;-72
2022/07/30 03:47:32;;;;;;;3.45;1.75;;;23.30;47.80;;;;;;5008007;28;20023;-72
2022/07/30 03:49:58;;;;;;;4.13;2.03;;;23.30;47.80;;;;;;5008421;28;20112;-72
2022/07/30 03:52:26;;;;;;;6.13;2.35;;;23.30;47.70;;;;;;4974538;28;20050;-72
2022/07/30 03:54:54;;;;;;;4.63;2.35;;;23.30;47.60;;;;;;4975606;28;20038;-72
2022/07/30 03:57:43;;;;;;;9.13;2.28;;;23.30;47.50;;;;;;4992209;28;20050;-72
2022/07/30 04:00:13;;;;;;;8.45;2.05;;;23.30;47.60;;;;;;4974715;28;20034;-71
2022/07/30 04:02:44;;;;;;;7.32;2.30;;;23.30;47.80;;;;;;4975519;28;20037;-72
2022/07/30 04:05:16;;;;;;;6.43;2.13;;;23.30;47.90;;;;;;4991523;28;20035;-72
2022/07/30 04:07:43;;;;;;;8.82;2.00;;;23.30;47.80;;;;;;4975134;28;20395;-71
2022/07/30 04:10:09;;;;;;;7.15;2.20;;;23.30;47.80;;;;;;4987200;28;20026;-71
2022/07/30 04:13:04;;;;;;;5.60;2.80;;;23.30;48.00;;;;;;4991043;28;20042;-71
2022/07/30 04:15:36;;;;;;;6.43;2.20;;;23.30;48.10;;;;;;4989009;28;20022;-71
2022/07/30 04:18:04;;;;;;;6.97;2.65;;;23.30;48.00;;;;;;5023336;28;20041;-71
2022/07/30 04:20:41;;;;;;;4.97;2.63;;;23.20;48.00;;;;;;4976378;28;20106;-71
2022/07/30 04:23:09;;;;;;;5.97;2.90;;;23.30;48.10;;;;;;4975045;28;20038;-71
2022/07/30 04:25:36;;;;;;;9.45;2.90;;;23.20;48.00;;;;;;4973544;28;20042;-71
2022/07/30 04:28:03;;;;;;;14.20;3.30;;;23.20;47.90;;;;;;5018253;28;20042;-71
2022/07/30 04:30:33;;;;;;;6.53;2.90;;;23.20;48.00;;;;;;4984290;28;20073;-71
2022/07/30 04:33:00;;;;;;;5.88;2.88;;;23.20;48.00;;;;;;4987737;28;20058;-71
2022/07/30 04:35:44;;;;;;;5.20;2.30;;;23.20;48.00;;;;;;5003665;28;20061;-72
2022/07/30 04:38:26;;;;;;;5.82;2.63;;;23.20;48.00;;;;;;4989959;28;20038;-72
2022/07/30 04:40:51;;;;;;;5.28;2.50;;;23.20;48.00;;;;;;5021485;28;20030;-72
2022/07/30 04:43:17;;;;;;;6.70;2.80;;;23.20;48.00;;;;;;5018026;28;20089;-72
2022/07/30 04:45:44;;;;;;;4.93;2.13;;;23.20;48.10;;;;;;5005752;28;20023;-71
2022/07/30 04:48:11;;;;;;;6.05;1.95;;;23.20;48.00;;;;;;5006517;28;20086;-71
2022/07/30 04:50:42;;;;;;;6.90;2.30;;;23.20;48.10;;;;;;4974763;28;20050;-71
2022/07/30 04:53:10;;;;;;;6.20;2.53;;;23.20;48.10;;;;;;4974464;28;20026;-71
2022/07/30 04:55:41;;;;;;;;;;;23.20;48.10;;;;;;4973706;28;20034;-72
2022/07/30 04:58:10;;;;;;;9.67;3.87;;;23.20;48.10;;;;;;5006061;28;19985;-72
2022/07/30 05:00:38;;;;;;;9.15;3.65;;;23.20;48.20;;;;;;4990539;28;20113;-71
2022/07/30 05:03:06;;;;;;;8.23;3.60;;;23.20;48.20;;;;;;4987431;22;20375;-73
2022/07/30 05:05:34;;;;;;;5.88;2.97;;;23.20;48.20;;;;;;4973843;28;20018;-73
2022/07/30 05:08:00;;;;;;;9.05;3.78;;;23.20;48.10;;;;;;4960546;28;20039;-74
2022/07/30 05:10:26;;;;;;;9.57;3.30;;;23.20;48.20;;;;;;4989840;28;20112;-73
2022/07/30 05:12:53;;;;;;;7.22;3.40;;;23.20;48.20;;;;;;4988124;28;20038;-73
2022/07/30 05:15:21;;;;;;;8.02;2.88;;;23.20;48.20;;;;;;4987869;28;20503;-73
2022/07/30 05:17:48;;;;;;;9.10;3.00;;;23.20;48.10;;;;;;4973417;28;20035;-74
2022/07/30 05:20:14;;;;;;;9.48;4.85;;;23.20;48.10;;;;;;4988305;28;20069;-73
2022/07/30 05:23:03;;;;;;;12.83;4.63;;;23.20;48.30;;;;;;4987999;28;20050;-75
2022/07/30 05:25:28;;;;;;;11.15;5.10;;;23.20;48.30;;;;;;4989479;28;20273;-74
2022/07/30 05:28:04;;;;;;;9.70;5.00;;;23.20;48.30;;;;;;4971696;28;20561;-74
2022/07/30 05:30:30;;;;;;;13.48;4.47;;;23.20;48.40;;;;;;4988181;28;20026;-74
2022/07/30 05:32:58;;;;;;;11.20;4.18;;;23.20;48.30;;;;;;4984583;28;20035;-74
2022/07/30 05:35:24;;;;;;;8.20;4.35;;;23.20;48.40;;;;;;4987950;28;20026;-75
2022/07/30 05:37:50;;;;;;;8.90;4.15;;;23.20;48.50;;;;;;4987845;28;20038;-75
2022/07/30 05:40:18;;;;;;;8.68;4.20;;;23.20;48.50;;;;;;4989749;28;20525;-75
2022/07/30 05:43:02;;;;;;;9.93;4.22;;;23.20;48.50;;;;;;4976337;28;20042;-74
2022/07/30 05:45:28;;;;;;;9.68;4.05;;;23.20;48.60;;;;;;4973697;28;20049;-74
2022/07/30 05:47:54;;;;;;;8.27;3.35;;;23.20;48.60;;;;;;4973020;28;20046;-75
2022/07/30 05:50:20;;;;;;;6.22;3.00;;;23.30;48.70;;;;;;4957827;28;20035;-75
2022/07/30 05:52:46;;;;;;;8.23;3.17;;;23.20;48.70;;;;;;4973720;28;20034;-75
2022/07/30 05:55:32;;;;;;;7.80;3.65;;;23.30;48.90;;;;;;4971363;28;20069;-74
2022/07/30 05:58:18;;;;;;;10.55;2.60;;;23.30;49.00;;;;;;4973024;28;20391;-75
2022/07/30 06:00:44;;;;;;;4.95;2.47;;;23.30;49.00;;;;;;4972775;28;20038;-74
2022/07/30 06:03:11;;;;;;;6.95;2.55;;;23.30;49.10;;;;;;4972876;28;20046;-75
2022/07/30 06:05:53;;;;;;;6.55;2.50;;;23.30;49.10;;;;;;4958904;28;20045;-75
2022/07/30 06:08:19;;;;;;;6.07;2.50;;;23.30;49.10;;;;;;4972490;28;20113;-75
2022/07/30 06:10:45;;;;;;;5.75;2.35;;;23.30;49.10;;;;;;4991510;28;20086;-74
2022/07/30 06:13:11;;;;;;;4.85;2.03;;;23.30;49.10;;;;;;4993024;28;20026;-75
2022/07/30 06:15:37;;;;;;;6.15;2.40;;;23.30;49.10;;;;;;4990898;28;20023;-75
2022/07/30 06:18:03;;;;;;;11.18;2.10;;;23.20;49.00;;;;;;4993078;28;20034;-75
2022/07/30 06:20:45;;;;;;;4.07;2.00;;;23.30;49.00;;;;;;4992865;28;20038;-75
2022/07/30 06:23:16;;;;;;;5.28;2.08;;;23.20;49.00;;;;;;4962784;28;20599;-75
2022/07/30 06:25:54;;;;;;;5.50;1.63;;;23.30;49.10;;;;;;4961784;28;20023;-75
2022/07/30 06:28:20;;;;;;;9.88;1.98;;;23.30;49.10;;;;;;4977173;28;20034;-75
2022/07/30 06:30:47;;;;;;;3.20;1.70;;;23.30;49.10;;;;;;4977409;28;20039;-75
2022/07/30 06:33:14;;;;;;;6.03;1.85;;;23.30;49.20;;;;;;4976828;28;20383;-75
2022/07/30 06:35:40;;;;;;;11.27;2.97;;;23.30;49.30;;;;;;4979298;28;20027;-75
2022/07/30 06:38:06;;;;;;;5.93;2.20;;;23.30;49.30;;;;;;4991142;28;20037;-75
2022/07/30 06:40:36;;;;;;;9.48;4.63;;;23.30;49.40;;;;;;4976524;28;20029;-75
2022/07/30 06:43:13;;;;;;;10.77;5.80;;;23.30;49.60;;;;;;4992897;28;20036;-75
2022/07/30 06:45:57;;;;;;;12.30;5.45;;;23.30;49.40;;;;;;4990630;28;20026;-75
2022/07/30 06:48:33;;;;;;;9.15;3.78;;;23.30;49.60;;;;;;4980381;28;20043;-75
2022/07/30 06:51:03;;;;;;;11.45;3.70;;;23.30;49.40;;;;;;4975783;28;20026;-75
2022/07/30 06:53:29;;;;;;;13.35;5.03;;;23.30;49.50;;;;;;4976595;28;20114;-75
2022/07/30 06:56:15;;;;;;;8.82;4.40;;;23.30;49.60;;;;;;4968705;28;20600;-75
2022/07/30 06:58:58;;;;;;;8.05;4.15;;;23.30;49.60;;;;;;4976631;28;20085;-75
2022/07/30 07:01:42;;;;;;;7.72;2.95;;;23.30;49.50;;;;;;4977070;28;20086;-74
2022/07/30 07:04:08;;;;;;;5.78;2.70;;;23.30;49.50;;;;;;4976022;28;20143;-76
2022/07/30 07:06:37;;;;;;;8.27;3.33;;;23.30;49.60;;;;;;4971740;28;20125;-77
2022/07/30 07:09:03;;;;;;;10.70;3.10;;;23.30;50.20;;;;;;4982084;28;20447;-75
2022/07/30 07:11:55;;;;;;;7.53;2.80;;;23.30;49.70;;;;;;4971808;28;20042;-77
2022/07/30 07:14:21;;;;;;;6.38;2.85;;;23.30;49.80;;;;;;4945753;28;20030;-77
2022/07/30 07:16:48;;;;;;;6.50;2.95;;;23.30;49.70;;;;;;4976004;28;20031;-77
2022/07/30 07:19:43;;;;;;;6.60;2.28;;;23.30;49.90;;;;;;4968576;28;20094;-75
2022/07/30 07:22:09;;;;;;;5.53;2.30;;;23.40;49.80;;;;;;4992778;28;20050;-76
2022/07/30 07:24:36;;;;;;;7.05;2.70;;;23.40;50.00;;;;;;4973676;28;20475;-76
2022/07/30 07:27:06;;;;;;;;;;;23.30;50.50;;;;;;4975683;28;20041;-76
2022/07/30 07:29:32;;;;;;;4.55;2.42;;;23.40;50.20;;;;;;4990581;28;20400;-78
2022/07/30 07:32:01;;;;;;;6.07;1.90;;;23.40;50.20;;;;;;4989738;28;20102;-78
2022/07/30 07:34:27;;;;;;;4.18;1.77;;;23.40;50.10;;;;;;4976057;28;20042;-78
2022/07/30 07:36:53;;;;;;;5.10;1.70;;;23.40;49.90;;;;;;4989458;28;20022;-78
2022/07/30 07:39:21;;;;;;;6.65;2.72;;;23.40;49.90;;;;;;4990115;28;20065;-79
2022/07/30 07:41:47;;;;;;;6.35;1.90;;;23.40;50.00;;;;;;4991685;28;20034;-78
2022/07/30 07:44:14;;;;;;;5.45;2.30;;;23.40;50.00;;;;;;4988212;28;20022;-78
2022/07/30 07:46:41;;;;;;;4.57;2.03;;;23.50;50.10;;;;;;4967683;28;20038;-78
2022/07/30 07:49:07;;;;;;;3.80;1.85;;;23.50;50.10;;;;;;4973668;28;20447;-79
2022/07/30 07:51:41;;;;;;;4.60;2.13;;;23.50;50.10;;;;;;4962691;28;20092;-79
2022/07/30 07:54:11;;;;;;;;;;;23.40;50.10;;;;;;4968921;28;20380;-79
2022/07/30 07:56:37;;;;;;;9.70;2.10;;;23.50;50.20;;;;;;4958975;28;19969;-79
2022/07/30 07:59:03;;;;;;;7.50;2.38;;;23.50;50.30;;;;;;4975497;28;20101;-78
2022/07/30 08:01:29;;;;;;;5.78;2.00;;;23.50;50.30;;;;;;4958444;28;20369;-79
2022/07/30 08:04:30;;;;;;;4.05;2.00;;;23.50;50.30;;;;;;4976317;28;20041;-78
2022/07/30 08:07:08;;;;;;;4.13;1.73;;;23.50;50.50;;;;;;4987199;28;20117;-78
2022/07/30 08:09:54;;;;;;;7.03;2.03;;;23.50;50.50;;;;;;4976798;28;20122;-79
2022/07/30 08:12:52;;;;;;;5.97;1.85;;;23.50;50.50;;;;;;4976186;28;20042;-78
2022/07/30 08:15:36;;;;;;;6.30;1.83;;;23.50;50.50;;;;;;4976710;28;20387;-78
2022/07/30 08:18:20;;;;;;;7.50;1.90;;;23.50;50.60;;;;;;4976431;28;20038;-78
2022/07/30 08:20:55;;;;;;;8.50;1.90;;;23.50;50.60;;;;;;4974387;28;20038;-78
2022/07/30 08:23:26;;;;;;;10.68;2.03;;;23.50;50.60;;;;;;4975180;28;20031;-78
2022/07/30 08:25:52;;;;;;;6.03;1.90;;;23.50;50.70;;;;;;4974797;28;20042;-77
2022/07/30 08:28:18;;;;;;;7.78;2.08;;;23.50;50.70;;;;;;4973821;28;20039;-78
2022/07/30 08:30:44;;;;;;;4.50;1.85;;;23.50;50.80;;;;;;4974769;28;20396;-78
2022/07/30 08:33:10;;;;;;;4.22;1.85;;;23.50;50.90;;;;;;4973829;28;20041;-77
2022/07/30 08:35:36;;;;;;;6.45;1.85;;;23.50;51.80;;;;;;4974711;28;20495;-78
2022/07/30 08:38:02;;;;;;;3.63;1.92;;;23.60;51.10;;;;;;4974856;28;20030;-78
2022/07/30 08:40:31;;;;;;;3.80;1.50;;;23.50;50.90;;;;;;4957912;28;20035;-77
2022/07/30 08:43:07;;;;;;;4.38;1.92;;;23.50;51.10;;;;;;4944352;28;20390;-78
2022/07/30 08:45:34;;;;;;;5.57;1.60;;;23.60;51.40;;;;;;4972512;28;20085;-78
2022/07/30 08:48:10;;;;;;;7.93;1.95;;;23.60;51.10;;;;;;4956782;28;20039;-77
2022/07/30 08:50:43;;;;;;;6.45;2.00;;;23.50;51.70;;;;;;4974182;28;20096;-77
2022/07/30 08:53:30;;;;;;;4.05;1.63;;;23.60;51.70;;;;;;4988756;28;20037;-77
2022/07/30 08:55:56;;;;;;;11.30;2.35;;;23.60;51.60;;;;;;4981328;28;20034;-77
2022/07/30 08:58:31;;;;;;;6.20;1.92;;;23.60;51.70;;;;;;4957667;28;20562;-77
2022/07/30 09:00:57;;;;;;;6.32;2.28;;;23.50;51.50;;;;;;4974603;28;20460;-78
2022/07/30 09:03:23;;;;;;;3.83;1.88;;;23.60;52.00;;;;;;4958259;28;20077;-78
2022/07/30 09:05:49;;;;;;;6.80;2.20;;;23.60;51.60;;;;;;4973037;28;20439;-78
2022/07/30 09:08:15;;;;;;;3.55;1.90;;;23.60;51.80;;;;;;4967480;28;20022;-78
2022/07/30 09:10:43;;;;;;;6.57;2.38;;;23.60;51.50;;;;;;4983155;28;20085;-78
2022/07/30 09:13:27;;;;;;;9.15;2.53;;;23.60;51.60;;;;;;4973781;28;20479;-77
2022/07/30 09:15:55;;;;;;;5.47;1.90;;;23.60;51.60;;;;;;4984300;28;20105;-78
2022/07/30 09:18:34;;;;;;;7.70;2.10;;;23.60;51.60;;;;;;4972307;28;20037;-77
2022/07/30 09:21:15;;;;;;;5.45;2.08;;;23.60;52.00;;;;;;4990027;28;20089;-77
2022/07/30 09:23:59;;;;;;;4.15;2.03;;;23.60;52.20;;;;;;4989669;28;20109;-78
2022/07/30 09:26:53;;;;;;;5.28;2.00;;;23.60;52.50;;;;;;4989774;28;20117;-77
2022/07/30 09:29:43;;;;;;;5.23;1.77;;;23.60;51.90;;;;;;4960954;28;20051;-78
2022/07/30 09:32:55;;;;;;;14.20;2.20;;;23.60;51.90;;;;;;4960594;28;20314;-78
2022/07/30 09:36:00;;;;;;;5.03;2.25;;;23.60;51.90;;;;;;4965617;28;20089;-77
2022/07/30 09:38:50;;;;;;;5.88;2.05;;;23.60;52.10;;;;;;4959747;28;20034;-77
2022/07/30 09:41:36;;;;;;;10.40;2.45;;;23.60;52.20;;;;;;4988031;28;20512;-77
2022/07/30 09:44:10;;;;;;;6.50;2.65;;;23.70;52.70;;;;;;4957016;28;20077;-78
2022/07/30 09:46:44;;;;;;;7.30;1.85;;;23.60;52.50;;;;;;4966271;28;20042;-78
2022/07/30 09:49:17;;;;;;;5.22;2.10;;;23.60;52.60;;;;;;4972812;28;20062;-78
2022/07/30 09:51:44;;;;;;;8.40;2.03;;;23.60;52.90;;;;;;4957943;28;20484;-78
2022/07/30 09:54:10;;;;;;;5.32;2.00;;;23.60;52.30;;;;;;4957044;28;20138;-78
2022/07/30 09:56:35;;;;;;;7.35;2.33;;;23.60;52.80;;;;;;4957339;28;20034;-77
2022/07/30 09:59:01;;;;;;;6.93;2.20;;;23.60;52.50;;;;;;4974662;28;20384;-77
2022/07/30 10:01:49;;;;;;;5.68;2.20;;;23.60;52.50;;;;;;4963605;28;20427;-78
2022/07/30 10:04:34;;;;;;;5.20;2.00;;;23.70;53.60;;;;;;4953745;28;20114;-79
2022/07/30 10:07:17;;;;;;;8.88;2.03;;;23.70;53.90;;;;;;4959714;28;20086;-78
2022/07/30 10:09:46;;;;;;;9.98;2.53;;;23.70;54.30;;;;;;4955316;28;20517;-78
2022/07/30 10:12:14;;;;;;;7.63;2.33;;;23.80;54.70;;;;;;4955385;28;20057;-75
2022/07/30 10:14:45;;;;;;;6.82;2.38;;;23.80;54.40;;;;;;4972793;28;20094;-75
2022/07/30 10:17:14;;;;;;;21.50;3.55;;;23.90;54.60;;;;;;4957356;28;20038;-75
2022/07/30 10:19:43;;;;;;;7.97;2.70;;;23.90;55.00;;;;;;4973037;28;20031;-78
2022/07/30 10:22:18;;;;;;;8.30;2.72;;;23.90;55.00;;;;;;4971377;28;20030;-76
2022/07/30 10:25:11;;;;;;;12.23;2.80;;;24.00;55.60;;;;;;4956755;28;20045;-74
2022/07/30 10:27:56;;;;;;;11.40;2.50;;;23.90;55.20;;;;;;4972539;28;20077;-73
2022/07/30 10:30:29;;;;;;;9.73;2.72;;;23.90;54.90;;;;;;4971500;28;20034;-74
2022/07/30 10:32:57;;;;;;;13.13;2.95;;;23.90;54.60;;;;;;4971250;28;20039;-74
2022/07/30 10:35:23;;;;;;;18.00;3.08;;;23.90;54.70;;;;;;4972248;28;20027;-74
2022/07/30 10:37:50;;;;;;;9.38;2.70;;;23.90;54.70;;;;;;4971189;28;20081;-74
2022/07/30 10:40:26;;;;;;;10.40;2.47;;;23.90;54.70;;;;;;4962408;28;20027;-75
2022/07/30 10:42:58;;;;;;;24.45;3.13;;;23.90;54.70;;;;;;4986456;28;20368;-84
2022/07/30 10:45:33;;;;;;;8.35;2.17;;;23.90;54.50;;;;;;4977515;28;20062;-82
2022/07/30 10:48:01;;;;;;;8.20;3.15;;;23.90;54.40;;;;;;4955667;28;20026;-82
2022/07/30 10:50:28;;;;;;;14.20;2.20;;;23.90;54.30;;;;;;4972666;28;20046;-83
2022/07/30 10:52:55;;;;;;;11.68;2.78;;;23.90;54.30;;;;;;4975493;28;20113;-84
2022/07/30 10:55:27;;;;;;;7.45;2.00;;;24.00;54.20;;;;;;4969823;28;20034;-83
2022/07/30 10:57:58;;;;;;;9.20;2.05;;;24.00;54.10;;;;;;4974137;28;20031;-83
2022/07/30 11:00:25;;;;;;;11.27;1.90;;;24.00;54.00;;;;;;4973623;28;20047;-80
2022/07/30 11:03:13;;;;;;;4.80;2.00;;;24.00;54.90;;;;;;4982765;22;20066;-70
2022/07/30 11:05:39;;;;;;;9.23;1.67;;;24.00;54.20;;;;;;5008442;28;20061;-71
2022/07/30 11:08:27;;;;;;;8.48;2.30;;;24.00;53.80;;;;;;5011400;28;20030;-70
2022/07/30 11:10:53;;;;;;;5.20;1.77;;;24.00;53.90;;;;;;5010713;28;20034;-70
2022/07/30 11:13:52;;;;;;;6.63;1.70;;;24.00;53.50;;;;;;5011894;28;20034;-71
2022/07/30 11:16:20;;;;;;;19.20;9.52;;;24.00;53.20;;;;;;5009028;28;20049;-71
2022/07/30 11:19:12;;;;;;;18.17;10.27;;;24.00;53.00;;;;;;5010547;28;20066;-71
2022/07/30 11:21:38;;;;;;;15.20;8.60;;;24.00;53.00;;;;;;5010048;28;20029;-72
2022/07/30 11:24:04;;;;;;;20.42;5.97;;;24.00;52.40;;;;;;5011244;28;20034;-71
2022/07/30 11:26:45;;;;;;;14.93;5.80;;;24.10;52.60;;;;;;5009270;28;20037;-71
2022/07/30 11:29:37;;;;;;;15.80;4.82;;;24.20;52.30;;;;;;5011040;28;20497;-71
2022/07/30 11:32:32;;;;;;;22.08;3.85;;;24.10;51.70;;;;;;5012488;28;20035;-71
2022/07/30 11:35:14;;;;;;;10.27;3.70;;;24.00;52.80;;;;;;5011839;28;20037;-71
2022/07/30 11:38:06;;;;;;;7.18;2.65;;;24.10;52.20;;;;;;5011967;28;20088;-71
2022/07/30 11:40:39;;;;;;;13.48;2.60;;;24.10;51.90;;;;;;5011902;28;20049;-73
2022/07/30 11:43:19;;;;;;;10.45;2.60;;;24.10;50.50;;;;;;5012042;28;20501;-71
2022/07/30 11:46:22;;;;;;;6.20;2.42;;;24.10;51.10;;;;;;5011472;28;20419;-71
2022/07/30 11:49:09;;;;;;;7.03;2.88;;;24.00;51.30;;;;;;5009511;28;20049;-71
2022/07/30 11:51:43;;;;;;;7.78;2.38;;;24.10;50.30;;;;;;5012334;28;20114;-71
2022/07/30 11:54:10;;;;;;;9.45;2.80;;;24.10;51.40;;;;;;5013591;28;20026;-71
2022/07/30 11:56:36;;;;;;;10.50;2.72;;;24.10;51.20;;;;;;5012269;28;20065;-71
2022/07/30 11:59:06;;;;;;;5.35;2.20;;;24.10;51.40;;;;;;5013498;28;20058;-71
2022/07/30 12:01:34;;;;;;;5.60;2.40;;;24.10;50.00;;;;;;5013707;28;20033;-71
2022/07/30 12:04:04;;;;;;;5.07;2.15;;;24.10;49.80;;;;;;5011268;28;20036;-71
2022/07/30 12:06:30;;;;;;;8.10;2.10;;;24.10;49.10;;;;;;5012462;28;20040;-72
2022/07/30 12:08:59;;;;;;;6.43;1.57;;;24.10;48.60;;;;;;5013365;28;20117;-72
2022/07/30 12:11:31;;;;;;;4.53;1.80;;;24.20;48.10;;;;;;5012054;28;20084;-72
2022/07/30 12:13:58;;;;;;;3.53;1.60;;;24.10;47.70;;;;;;4995735;28;20056;-72
2022/07/30 12:16:26;;;;;;;3.72;1.70;;;24.20;47.70;;;;;;5028113;28;20040;-72
2022/07/30 12:18:53;;;;;;;3.95;1.55;;;24.20;47.70;;;;;;5013325;28;20170;-72
2022/07/30 12:21:20;;;;;;;7.10;1.58;;;24.20;47.90;;;;;;5012937;28;20084;-72
2022/07/30 12:23:57;;;;;;;12.25;1.65;;;24.30;47.60;;;;;;5002550;28;20030;-74
2022/07/30 12:26:25;;;;;;;5.13;1.70;;;24.30;48.10;;;;;;5012160;28;20029;-73
2022/07/30 12:28:52;;;;;;;6.50;1.80;;;24.30;48.70;;;;;;5008236;28;20041;-73
2022/07/30 12:31:18;;;;;;;6.72;1.50;;;24.30;48.20;;;;;;5011475;28;20391;-73
2022/07/30 12:33:43;;;;;;;3.33;1.50;;;24.50;46.90;;;;;;5009810;28;20033;-73
2022/07/30 12:36:26;;;;;;;6.53;1.65;;;24.50;46.40;;;;;;5009915;28;20033;-73
2022/07/30 12:38:53;;;;;;;4.50;1.70;;;24.50;49.40;;;;;;5008444;28;20030;-73
2022/07/30 12:41:19;;;;;;;3.05;1.23;;;24.50;46.90;;;;;;5010727;28;20430;-74
2022/07/30 12:43:53;;;;;;;5.22;1.30;;;24.40;46.00;;;;;;5010159;28;20026;-73
2022/07/30 12:46:25;;;;;;;4.38;1.48;;;24.40;46.90;;;;;;5010514;28;20505;-74
2022/07/30 12:49:05;;;;;;;3.45;1.55;;;24.50;45.70;;;;;;5010643;28;20050;-74
2022/07/30 12:51:36;;;;;;;;;;;24.40;44.90;;;;;;5009714;28;20026;-73
2022/07/30 12:54:15;;;;;;;4.57;1.60;;;24.30;45.20;;;;;;5011155;28;20362;-73
2022/07/30 12:57:02;;;;;;;4.18;1.15;;;24.30;46.10;;;;;;5010231;28;20030;-74
2022/07/30 12:59:30;;;;;;;2.50;1.20;;;24.30;46.20;;;;;;5011312;28;20093;-73
2022/07/30 13:01:58;;;;;;;4.97;1.33;;;24.30;46.70;;;;;;5012154;28;20064;-73
2022/07/30 13:04:25;;;;;;;6.15;1.77;;;24.40;45.70;;;;;;5010941;28;20044;-74
2022/07/30 13:07:09;;;;;;;6.55;1.40;;;24.30;46.00;;;;;;5004809;28;20030;-74
2022/07/30 13:09:35;;;;;;;6.30;1.73;;;24.40;46.80;;;;;;5006831;28;20122;-73